sensor_id;sensor_type;location;lat;lon;timestamp;P1;durP1;ratioP1;P2;durP2;ratioP2
44098;SDS011;29762;50.086;14.364;2022-12-07T00:02:44;1.20;;;0.70;;
44098;SDS011;29762;50.086;14.364;2022-12-07T00:08:03;1.10;;;0.68;;
44098;SDS011;29762;50.086;14.364;2022-12-07T00:13:23;2.08;;;0.80;;
44098;SDS011;29762;50.086;14.364;2022-12-07T00:18:43;2.78;;;0.70;;
44098;SDS011;29762;50.086;14.364;2022-12-07T00:24:03;0.90;;;0.73;;
44098;SDS011;29762;50.086;14.364;2022-12-07T00:29:24;1.17;;;0.70;;
44098;SDS011;29762;50.086;14.364;2022-12-07T00:34:43;1.33;;;0.70;;
44098;SDS011;29762;50.086;14.364;2022-12-07T00:40:03;1.20;;;0.70;;
44098;SDS011;29762;50.086;14.364;2022-12-07T00:45:23;1.63;;;0.93;;
44098;SDS011;29762;50.086;14.364;2022-12-07T00:50:42;0.88;;;0.70;;
44098;SDS011;29762;50.086;14.364;2022-12-07T00:56:09;1.13;;;0.70;;
44098;SDS011;29762;50.086;14.364;2022-12-07T01:01:36;1.33;;;0.73;;
44098;SDS011;29762;50.086;14.364;2022-12-07T01:06:56;1.20;;;0.90;;
44098;SDS011;29762;50.086;14.364;2022-12-07T01:12:15;1.08;;;0.70;;
44098;SDS011;29762;50.086;14.364;2022-12-07T01:17:34;2.38;;;0.70;;
44098;SDS011;29762;50.086;14.364;2022-12-07T01:22:54;0.77;;;0.65;;
44098;SDS011;29762;50.086;14.364;2022-12-07T01:28:13;1.42;;;0.70;;
44098;SDS011;29762;50.086;14.364;2022-12-07T01:33:34;1.13;;;0.65;;
44098;SDS011;29762;50.086;14.364;2022-12-07T01:38:55;1.25;;;0.77;;
44098;SDS011;29762;50.086;14.364;2022-12-07T01:44:20;1.00;;;0.65;;
44098;SDS011;29762;50.086;14.364;2022-12-07T01:49:42;0.98;;;0.73;;
44098;SDS011;29762;50.086;14.364;2022-12-07T01:55:04;1.08;;;0.60;;
44098;SDS011;29762;50.086;14.364;2022-12-07T02:00:25;1.10;;;0.60;;
44098;SDS011;29762;50.086;14.364;2022-12-07T02:05:45;0.90;;;0.70;;
44098;SDS011;29762;50.086;14.364;2022-12-07T02:11:05;1.10;;;0.70;;
44098;SDS011;29762;50.086;14.364;2022-12-07T02:28:11;1.30;;;0.70;;
44098;SDS011;29762;50.086;14.364;2022-12-07T02:34:16;0.70;;;0.65;;
44098;SDS011;29762;50.086;14.364;2022-12-07T02:39:44;0.85;;;0.70;;
44098;SDS011;29762;50.086;14.364;2022-12-07T02:45:09;0.75;;;0.60;;
44098;SDS011;29762;50.086;14.364;2022-12-07T02:50:30;1.05;;;0.50;;
44098;SDS011;29762;50.086;14.364;2022-12-07T02:55:49;0.70;;;0.60;;
44098;SDS011;29762;50.086;14.364;2022-12-07T03:01:12;0.77;;;0.60;;
44098;SDS011;29762;50.086;14.364;2022-12-07T03:06:56;0.63;;;0.60;;
44098;SDS011;29762;50.086;14.364;2022-12-07T03:12:21;0.60;;;0.55;;
44098;SDS011;29762;50.086;14.364;2022-12-07T03:17:43;0.80;;;0.60;;
44098;SDS011;29762;50.086;14.364;2022-12-07T03:23:04;0.63;;;0.60;;
44098;SDS011;29762;50.086;14.364;2022-12-07T03:28:26;1.13;;;0.60;;
44098;SDS011;29762;50.086;14.364;2022-12-07T03:34:02;0.50;;;0.50;;
44098;SDS011;29762;50.086;14.364;2022-12-07T03:45:00;1.00;;;0.70;;
44098;SDS011;29762;50.086;14.364;2022-12-07T03:56:03;0.50;;;0.50;;
44098;SDS011;29762;50.086;14.364;2022-12-07T04:01:24;0.50;;;0.50;;
44098;SDS011;29762;50.086;14.364;2022-12-07T04:06:43;0.70;;;0.60;;
44098;SDS011;29762;50.086;14.364;2022-12-07T04:12:03;0.85;;;0.63;;
44098;SDS011;29762;50.086;14.364;2022-12-07T04:17:22;0.88;;;0.50;;
44098;SDS011;29762;50.086;14.364;2022-12-07T04:22:42;0.40;;;0.40;;
44098;SDS011;29762;50.086;14.364;2022-12-07T04:28:01;0.70;;;0.60;;
44098;SDS011;29762;50.086;14.364;2022-12-07T04:33:20;0.40;;;0.40;;
44098;SDS011;29762;50.086;14.364;2022-12-07T04:38:40;0.55;;;0.43;;
44098;SDS011;29762;50.086;14.364;2022-12-07T04:44:00;0.60;;;0.60;;
44098;SDS011;29762;50.086;14.364;2022-12-07T04:49:21;0.88;;;0.60;;
44098;SDS011;29762;50.086;14.364;2022-12-07T04:54:41;0.50;;;0.50;;
44098;SDS011;29762;50.086;14.364;2022-12-07T05:00:00;0.55;;;0.55;;
44098;SDS011;29762;50.086;14.364;2022-12-07T05:05:20;0.75;;;0.68;;
44098;SDS011;29762;50.086;14.364;2022-12-07T05:10:39;0.57;;;0.50;;
44098;SDS011;29762;50.086;14.364;2022-12-07T05:15:59;0.82;;;0.70;;
44098;SDS011;29762;50.086;14.364;2022-12-07T05:21:19;0.47;;;0.47;;
44098;SDS011;29762;50.086;14.364;2022-12-07T05:26:38;0.77;;;0.50;;
44098;SDS011;29762;50.086;14.364;2022-12-07T05:31:58;0.52;;;0.50;;
44098;SDS011;29762;50.086;14.364;2022-12-07T05:37:17;0.43;;;0.43;;
44098;SDS011;29762;50.086;14.364;2022-12-07T05:42:36;0.50;;;0.50;;
44098;SDS011;29762;50.086;14.364;2022-12-07T05:47:56;0.93;;;0.60;;
44098;SDS011;29762;50.086;14.364;2022-12-07T05:53:16;0.65;;;0.50;;
44098;SDS011;29762;50.086;14.364;2022-12-07T05:58:35;1.02;;;0.45;;
44098;SDS011;29762;50.086;14.364;2022-12-07T06:04:14;1.60;;;0.55;;
44098;SDS011;29762;50.086;14.364;2022-12-07T06:09:33;0.60;;;0.60;;
44098;SDS011;29762;50.086;14.364;2022-12-07T06:14:53;5.75;;;1.50;;
44098;SDS011;29762;50.086;14.364;2022-12-07T06:20:13;6.05;;;1.50;;
44098;SDS011;29762;50.086;14.364;2022-12-07T06:25:32;6.10;;;1.65;;
44098;SDS011;29762;50.086;14.364;2022-12-07T06:31:01;3.47;;;1.60;;
44098;SDS011;29762;50.086;14.364;2022-12-07T06:36:22;5.88;;;1.75;;
44098;SDS011;29762;50.086;14.364;2022-12-07T06:41:41;6.55;;;1.98;;
44098;SDS011;29762;50.086;14.364;2022-12-07T06:47:01;6.05;;;1.80;;
44098;SDS011;29762;50.086;14.364;2022-12-07T06:52:21;6.50;;;1.90;;
44098;SDS011;29762;50.086;14.364;2022-12-07T06:57:40;6.45;;;1.80;;
44098;SDS011;29762;50.086;14.364;2022-12-07T07:03:00;6.68;;;1.75;;
44098;SDS011;29762;50.086;14.364;2022-12-07T07:08:20;7.32;;;1.92;;
44098;SDS011;29762;50.086;14.364;2022-12-07T07:13:39;4.97;;;2.00;;
44098;SDS011;29762;50.086;14.364;2022-12-07T07:18:59;5.15;;;1.77;;
44098;SDS011;29762;50.086;14.364;2022-12-07T07:24:18;5.72;;;2.00;;
44098;SDS011;29762;50.086;14.364;2022-12-07T07:29:38;6.45;;;2.10;;
44098;SDS011;29762;50.086;14.364;2022-12-07T07:34:57;5.65;;;1.92;;
44098;SDS011;29762;50.086;14.364;2022-12-07T07:40:16;5.50;;;1.98;;
44098;SDS011;29762;50.086;14.364;2022-12-07T07:45:36;5.72;;;1.90;;
44098;SDS011;29762;50.086;14.364;2022-12-07T07:50:56;5.68;;;2.00;;
44098;SDS011;29762;50.086;14.364;2022-12-07T07:56:15;4.85;;;2.13;;
44098;SDS011;29762;50.086;14.364;2022-12-07T08:01:34;7.18;;;2.10;;
44098;SDS011;29762;50.086;14.364;2022-12-07T08:06:54;3.72;;;2.00;;
44098;SDS011;29762;50.086;14.364;2022-12-07T08:12:13;6.50;;;2.00;;
44098;SDS011;29762;50.086;14.364;2022-12-07T08:17:33;4.22;;;1.90;;
44098;SDS011;29762;50.086;14.364;2022-12-07T08:22:52;3.03;;;1.63;;
44098;SDS011;29762;50.086;14.364;2022-12-07T08:28:11;5.05;;;1.80;;
44098;SDS011;29762;50.086;14.364;2022-12-07T08:33:31;4.82;;;1.80;;
44098;SDS011;29762;50.086;14.364;2022-12-07T08:38:51;4.35;;;1.70;;
44098;SDS011;29762;50.086;14.364;2022-12-07T08:44:10;4.13;;;1.65;;
44098;SDS011;29762;50.086;14.364;2022-12-07T08:49:47;4.35;;;1.80;;
44098;SDS011;29762;50.086;14.364;2022-12-07T08:55:10;4.07;;;1.80;;
44098;SDS011;29762;50.086;14.364;2022-12-07T09:00:30;4.70;;;2.08;;
44098;SDS011;29762;50.086;14.364;2022-12-07T09:05:49;3.28;;;1.65;;
44098;SDS011;29762;50.086;14.364;2022-12-07T09:11:09;3.45;;;1.33;;
44098;SDS011;29762;50.086;14.364;2022-12-07T09:16:28;3.97;;;1.55;;
44098;SDS011;29762;50.086;14.364;2022-12-07T09:21:47;2.72;;;1.60;;
44098;SDS011;29762;50.086;14.364;2022-12-07T09:27:07;3.60;;;1.60;;
44098;SDS011;29762;50.086;14.364;2022-12-07T09:32:26;3.45;;;1.40;;
44098;SDS011;29762;50.086;14.364;2022-12-07T09:37:45;2.63;;;1.13;;
44098;SDS011;29762;50.086;14.364;2022-12-07T09:43:11;3.65;;;1.50;;
44098;SDS011;29762;50.086;14.364;2022-12-07T09:48:32;3.10;;;1.42;;
44098;SDS011;29762;50.086;14.364;2022-12-07T09:53:56;2.10;;;1.27;;
44098;SDS011;29762;50.086;14.364;2022-12-07T09:59:19;2.03;;;1.30;;
44098;SDS011;29762;50.086;14.364;2022-12-07T10:04:38;2.60;;;1.42;;
44098;SDS011;29762;50.086;14.364;2022-12-07T10:09:58;2.83;;;1.33;;
44098;SDS011;29762;50.086;14.364;2022-12-07T10:15:18;2.05;;;1.10;;
44098;SDS011;29762;50.086;14.364;2022-12-07T10:20:37;2.00;;;1.20;;
44098;SDS011;29762;50.086;14.364;2022-12-07T10:25:57;2.10;;;1.10;;
44098;SDS011;29762;50.086;14.364;2022-12-07T10:31:17;2.90;;;1.92;;
44098;SDS011;29762;50.086;14.364;2022-12-07T10:36:38;1.90;;;1.20;;
44098;SDS011;29762;50.086;14.364;2022-12-07T10:41:59;2.53;;;1.23;;
44098;SDS011;29762;50.086;14.364;2022-12-07T10:47:32;1.98;;;1.30;;
44098;SDS011;29762;50.086;14.364;2022-12-07T10:58:28;3.10;;;1.20;;
44098;SDS011;29762;50.086;14.364;2022-12-07T11:09:35;2.05;;;1.10;;
44098;SDS011;29762;50.086;14.364;2022-12-07T11:15:23;1.90;;;1.17;;
44098;SDS011;29762;50.086;14.364;2022-12-07T11:37:25;2.00;;;1.00;;
44098;SDS011;29762;50.086;14.364;2022-12-07T11:42:51;2.10;;;1.13;;
44098;SDS011;29762;50.086;14.364;2022-12-07T11:53:54;2.42;;;1.00;;
44098;SDS011;29762;50.086;14.364;2022-12-07T11:59:17;1.75;;;1.10;;
44098;SDS011;29762;50.086;14.364;2022-12-07T12:10:24;1.53;;;1.10;;
44098;SDS011;29762;50.086;14.364;2022-12-07T12:16:04;1.33;;;1.10;;
44098;SDS011;29762;50.086;14.364;2022-12-07T12:21:28;1.30;;;0.80;;
44098;SDS011;29762;50.086;14.364;2022-12-07T12:26:53;2.45;;;1.20;;
44098;SDS011;29762;50.086;14.364;2022-12-07T12:37:52;1.27;;;0.90;;
44098;SDS011;29762;50.086;14.364;2022-12-07T13:00:26;1.25;;;0.93;;
44098;SDS011;29762;50.086;14.364;2022-12-07T13:05:47;1.27;;;1.00;;
44098;SDS011;29762;50.086;14.364;2022-12-07T13:11:20;1.10;;;1.00;;
44098;SDS011;29762;50.086;14.364;2022-12-07T13:16:47;1.17;;;0.98;;
44098;SDS011;29762;50.086;14.364;2022-12-07T13:27:54;1.42;;;0.90;;
44098;SDS011;29762;50.086;14.364;2022-12-07T13:33:17;1.30;;;0.90;;
44098;SDS011;29762;50.086;14.364;2022-12-07T13:38:38;0.90;;;0.70;;
44098;SDS011;29762;50.086;14.364;2022-12-07T13:44:16;1.38;;;1.00;;
44098;SDS011;29762;50.086;14.364;2022-12-07T13:49:38;1.58;;;0.90;;
44098;SDS011;29762;50.086;14.364;2022-12-07T14:00:25;1.00;;;0.80;;
44098;SDS011;29762;50.086;14.364;2022-12-07T14:05:46;1.40;;;0.85;;
44098;SDS011;29762;50.086;14.364;2022-12-07T14:11:05;0.90;;;0.77;;
44098;SDS011;29762;50.086;14.364;2022-12-07T14:16:28;7.47;;;1.52;;
44098;SDS011;29762;50.086;14.364;2022-12-07T14:21:50;2.83;;;1.20;;
44098;SDS011;29762;50.086;14.364;2022-12-07T14:27:29;2.03;;;1.02;;
44098;SDS011;29762;50.086;14.364;2022-12-07T14:32:59;1.42;;;1.15;;
44098;SDS011;29762;50.086;14.364;2022-12-07T14:38:21;2.28;;;1.05;;
44098;SDS011;29762;50.086;14.364;2022-12-07T14:43:40;1.80;;;0.90;;
44098;SDS011;29762;50.086;14.364;2022-12-07T14:49:00;2.38;;;1.20;;
44098;SDS011;29762;50.086;14.364;2022-12-07T14:54:20;1.35;;;0.85;;
44098;SDS011;29762;50.086;14.364;2022-12-07T14:59:40;1.95;;;0.90;;
44098;SDS011;29762;50.086;14.364;2022-12-07T15:04:59;1.67;;;0.80;;
44098;SDS011;29762;50.086;14.364;2022-12-07T15:10:20;10.38;;;1.02;;
44098;SDS011;29762;50.086;14.364;2022-12-07T15:15:49;2.45;;;0.82;;
44098;SDS011;29762;50.086;14.364;2022-12-07T15:21:13;1.13;;;0.80;;
44098;SDS011;29762;50.086;14.364;2022-12-07T15:26:33;2.88;;;0.95;;
44098;SDS011;29762;50.086;14.364;2022-12-07T15:31:53;1.27;;;0.90;;
44098;SDS011;29762;50.086;14.364;2022-12-07T15:37:13;1.60;;;0.80;;
44098;SDS011;29762;50.086;14.364;2022-12-07T15:42:32;1.00;;;0.75;;
44098;SDS011;29762;50.086;14.364;2022-12-07T15:47:51;1.92;;;1.00;;
44098;SDS011;29762;50.086;14.364;2022-12-07T15:53:10;1.75;;;0.73;;
44098;SDS011;29762;50.086;14.364;2022-12-07T15:58:30;1.73;;;1.00;;
44098;SDS011;29762;50.086;14.364;2022-12-07T16:03:50;4.00;;;1.40;;
44098;SDS011;29762;50.086;14.364;2022-12-07T16:09:10;2.08;;;1.27;;
44098;SDS011;29762;50.086;14.364;2022-12-07T16:14:29;3.63;;;1.30;;
44098;SDS011;29762;50.086;14.364;2022-12-07T16:19:51;4.00;;;1.40;;
44098;SDS011;29762;50.086;14.364;2022-12-07T16:25:12;3.50;;;1.60;;
44098;SDS011;29762;50.086;14.364;2022-12-07T16:30:32;4.55;;;1.70;;
44098;SDS011;29762;50.086;14.364;2022-12-07T16:35:51;4.20;;;1.80;;
44098;SDS011;29762;50.086;14.364;2022-12-07T16:41:11;3.83;;;1.80;;
44098;SDS011;29762;50.086;14.364;2022-12-07T16:46:34;6.20;;;1.63;;
44098;SDS011;29762;50.086;14.364;2022-12-07T16:51:55;5.63;;;1.70;;
44098;SDS011;29762;50.086;14.364;2022-12-07T16:57:16;5.85;;;1.55;;
44098;SDS011;29762;50.086;14.364;2022-12-07T17:02:36;12.60;;;4.82;;
44098;SDS011;29762;50.086;14.364;2022-12-07T17:07:55;13.55;;;4.10;;
44098;SDS011;29762;50.086;14.364;2022-12-07T17:13:15;6.90;;;3.80;;
44098;SDS011;29762;50.086;14.364;2022-12-07T17:18:53;7.25;;;3.20;;
44098;SDS011;29762;50.086;14.364;2022-12-07T17:24:14;6.43;;;3.08;;
44098;SDS011;29762;50.086;14.364;2022-12-07T17:29:35;6.07;;;2.50;;
44098;SDS011;29762;50.086;14.364;2022-12-07T17:34:54;4.45;;;2.70;;
44098;SDS011;29762;50.086;14.364;2022-12-07T17:40:14;5.13;;;2.45;;
44098;SDS011;29762;50.086;14.364;2022-12-07T17:45:35;5.57;;;2.40;;
44098;SDS011;29762;50.086;14.364;2022-12-07T17:50:59;3.95;;;2.00;;
44098;SDS011;29762;50.086;14.364;2022-12-07T17:56:37;3.70;;;2.10;;
44098;SDS011;29762;50.086;14.364;2022-12-07T18:01:57;6.90;;;2.42;;
44098;SDS011;29762;50.086;14.364;2022-12-07T18:07:17;7.40;;;2.17;;
44098;SDS011;29762;50.086;14.364;2022-12-07T18:12:37;3.10;;;2.17;;
44098;SDS011;29762;50.086;14.364;2022-12-07T18:17:58;4.75;;;2.33;;
44098;SDS011;29762;50.086;14.364;2022-12-07T18:23:17;4.80;;;2.10;;
44098;SDS011;29762;50.086;14.364;2022-12-07T18:28:39;4.47;;;1.77;;
44098;SDS011;29762;50.086;14.364;2022-12-07T18:34:06;4.00;;;1.88;;
44098;SDS011;29762;50.086;14.364;2022-12-07T18:39:29;3.97;;;1.80;;
44098;SDS011;29762;50.086;14.364;2022-12-07T18:44:49;3.13;;;1.88;;
44098;SDS011;29762;50.086;14.364;2022-12-07T18:50:08;3.97;;;1.85;;
44098;SDS011;29762;50.086;14.364;2022-12-07T18:55:31;3.60;;;1.70;;
44098;SDS011;29762;50.086;14.364;2022-12-07T19:00:54;4.80;;;1.90;;
44098;SDS011;29762;50.086;14.364;2022-12-07T19:45:48;7.25;;;3.25;;
44098;SDS011;29762;50.086;14.364;2022-12-07T19:51:07;6.63;;;2.95;;
44098;SDS011;29762;50.086;14.364;2022-12-07T19:56:29;8.25;;;2.60;;
44098;SDS011;29762;50.086;14.364;2022-12-07T20:01:49;4.75;;;2.42;;
44098;SDS011;29762;50.086;14.364;2022-12-07T20:07:09;5.43;;;2.45;;
44098;SDS011;29762;50.086;14.364;2022-12-07T20:12:29;4.18;;;2.15;;
44098;SDS011;29762;50.086;14.364;2022-12-07T20:18:07;4.97;;;2.53;;
44098;SDS011;29762;50.086;14.364;2022-12-07T20:23:27;4.82;;;2.25;;
44098;SDS011;29762;50.086;14.364;2022-12-07T20:28:47;4.55;;;2.28;;
44098;SDS011;29762;50.086;14.364;2022-12-07T20:34:07;6.20;;;2.28;;
44098;SDS011;29762;50.086;14.364;2022-12-07T21:09:48;5.43;;;2.45;;
44098;SDS011;29762;50.086;14.364;2022-12-07T21:15:09;5.28;;;2.10;;
44098;SDS011;29762;50.086;14.364;2022-12-07T21:20:31;3.10;;;1.70;;
44098;SDS011;29762;50.086;14.364;2022-12-07T21:31:29;3.03;;;1.88;;
44098;SDS011;29762;50.086;14.364;2022-12-07T21:36:49;4.70;;;2.30;;
44098;SDS011;29762;50.086;14.364;2022-12-07T21:53:28;4.28;;;1.83;;
44098;SDS011;29762;50.086;14.364;2022-12-07T21:58:47;4.57;;;2.08;;
44098;SDS011;29762;50.086;14.364;2022-12-07T22:04:09;4.38;;;2.00;;
44098;SDS011;29762;50.086;14.364;2022-12-07T22:09:31;4.07;;;2.10;;
44098;SDS011;29762;50.086;14.364;2022-12-07T22:14:50;4.97;;;2.00;;
44098;SDS011;29762;50.086;14.364;2022-12-07T22:20:25;3.38;;;1.90;;
44098;SDS011;29762;50.086;14.364;2022-12-07T22:25:44;3.70;;;1.90;;
44098;SDS011;29762;50.086;14.364;2022-12-07T22:31:04;3.92;;;2.08;;
44098;SDS011;29762;50.086;14.364;2022-12-07T22:36:25;4.03;;;2.17;;
44098;SDS011;29762;50.086;14.364;2022-12-07T22:41:46;4.07;;;2.13;;
44098;SDS011;29762;50.086;14.364;2022-12-07T22:47:05;3.25;;;2.00;;
44098;SDS011;29762;50.086;14.364;2022-12-07T22:52:24;3.60;;;1.77;;
44098;SDS011;29762;50.086;14.364;2022-12-07T22:57:44;3.92;;;2.03;;
44098;SDS011;29762;50.086;14.364;2022-12-07T23:03:03;1.95;;;1.67;;
44098;SDS011;29762;50.086;14.364;2022-12-07T23:08:23;2.95;;;2.10;;
44098;SDS011;29762;50.086;14.364;2022-12-07T23:13:42;6.03;;;2.00;;
44098;SDS011;29762;50.086;14.364;2022-12-07T23:19:01;2.83;;;1.65;;
44098;SDS011;29762;50.086;14.364;2022-12-07T23:24:21;3.78;;;1.77;;
44098;SDS011;29762;50.086;14.364;2022-12-07T23:29:40;3.65;;;1.77;;
44098;SDS011;29762;50.086;14.364;2022-12-07T23:34:59;4.35;;;2.03;;
44098;SDS011;29762;50.086;14.364;2022-12-07T23:40:19;2.85;;;1.40;;
44098;SDS011;29762;50.086;14.364;2022-12-07T23:45:38;2.33;;;1.77;;
44098;SDS011;29762;50.086;14.364;2022-12-07T23:50:57;3.10;;;1.90;;
44098;SDS011;29762;50.086;14.364;2022-12-07T23:56:19;1.92;;;1.60;;
